KLVJ

Pearland Regional Airport

Houston, Texas, USA
METAR KLVJ 230253Z AUTO 00000KT 10SM CLR 26/23 A2998 RMK AO2 SLP152 T02560233 51018
Observed Flight Rules
May-23 @ 02:53 UTC (12 minutes ago) Visual Flight Rules
Visibility Clouds
10 miles
  • Clear skies
Temperatures Readings
Current 26°C / 79°F
Dewpoint 23°C / 73°F
Humidity 84%
Altimeter 29.98" Hg
Pressure 1015.2 hPa
Elevation 12
METAR KLVJ 230253Z AUTO 00000KT 10SM CLR 26/23 A2998 RMK AO2 SLP152 T02560233 51018
Observed Flight Rules
May-23 @ 02:53 UTC
(12 minutes ago)
VFR
Clouds
  • Clear skies
Temperature Dewpoint
26°C / 79°F 23°C / 73°F
Humidity Altimeter Pressure
84% 29.98" Hg 1015.2 hPa